Time,TemperatureF,DewpointF,PressureIn,WindDirection,WindDirectionDegrees,WindSpeedMPH,WindSpeedGustMPH,Humidity,HourlyPrecipIn,Conditions,Clouds,dailyrainin,SoftwareType,DateUTC
2013-05-23 00:02:00,51.0,50.0,-100.00,NE,55,0.0,0.0,96,0.00,,,-99.99,,2013-05-23 05:02:00,
2013-05-23 00:11:00,51.0,50.0,-100.00,NE,55,0.0,0.0,96,0.00,,,-99.99,,2013-05-23 05:11:00,
2013-05-23 00:22:00,51.0,50.0,-100.00,NE,55,0.0,0.0,96,0.00,,,-99.99,,2013-05-23 05:22:00,
2013-05-23 00:32:00,51.0,50.0,-100.00,NE,55,0.0,0.0,96,0.00,,,-99.99,,2013-05-23 05:32:00,
2013-05-23 01:02:00,51.0,49.0,-100.00,ENE,70,0.0,0.0,95,0.00,,,-99.99,,2013-05-23 06:02:00,
2013-05-23 01:12:00,51.0,49.0,-100.00,ENE,70,0.0,0.0,95,0.00,,,-99.99,,2013-05-23 06:12:00,
2013-05-23 01:21:00,51.0,49.0,-100.00,ENE,70,0.0,0.0,95,0.00,,,-99.99,,2013-05-23 06:21:00,
2013-05-23 01:32:00,51.0,49.0,-100.00,ENE,70,0.0,0.0,95,0.00,,,-99.99,,2013-05-23 06:32:00,
2013-05-23 02:02:00,51.0,49.0,-100.00,NE,50,0.0,0.0,95,0.00,,,-99.99,,2013-05-23 07:02:00,
2013-05-23 02:11:00,51.0,49.0,-100.00,NE,50,0.0,0.0,95,0.00,,,-99.99,,2013-05-23 07:11:00,
2013-05-23 02:21:00,51.0,49.0,-100.00,NE,50,0.0,0.0,95,0.00,,,-99.99,,2013-05-23 07:21:00,
2013-05-23 02:32:00,51.0,49.0,-100.00,NE,50,0.0,0.0,95,0.00,,,-99.99,,2013-05-23 07:32:00,
2013-05-23 03:02:00,51.0,49.0,-100.00,NE,50,0.0,0.0,95,0.00,,,-99.99,,2013-05-23 08:02:00,
2013-05-23 03:11:00,51.0,49.0,-100.00,NE,50,0.0,0.0,95,0.00,,,-99.99,,2013-05-23 08:11:00,
2013-05-23 03:22:00,51.0,49.0,-100.00,NE,50,0.0,0.0,95,0.00,,,-99.99,,2013-05-23 08:22:00,
2013-05-23 03:31:00,51.0,49.0,-100.00,NE,50,0.0,0.0,95,0.00,,,-99.99,,2013-05-23 08:31:00,
2013-05-23 04:01:00,50.0,49.0,-100.00,NE,45,0.0,0.0,96,0.00,,,-99.99,,2013-05-23 09:01:00,
2013-05-23 04:11:00,50.0,49.0,-100.00,NE,45,0.0,0.0,96,0.00,,,-99.99,,2013-05-23 09:11:00,
2013-05-23 04:21:00,50.0,49.0,-100.00,NE,45,0.0,0.0,96,0.00,,,-99.99,,2013-05-23 09:21:00,
2013-05-23 04:33:00,50.0,49.0,-100.00,NE,45,0.0,0.0,96,0.00,,,-99.99,,2013-05-23 09:33:00,
2013-05-23 05:02:00,48.0,46.0,-100.00,NE,40,0.0,0.0,93,0.00,,,-99.99,,2013-05-23 10:02:00,
2013-05-23 05:12:00,48.0,46.0,-100.00,NE,40,0.0,0.0,93,0.00,,,-99.99,,2013-05-23 10:12:00,
2013-05-23 05:22:00,48.0,46.0,-100.00,NE,40,0.0,0.0,93,0.00,,,-99.99,,2013-05-23 10:22:00,
2013-05-23 05:32:00,48.0,46.0,-100.00,NE,40,0.0,0.0,93,0.00,,,-99.99,,2013-05-23 10:32:00,
2013-05-23 06:02:00,48.0,46.0,-100.00,North,0,0.0,0.0,94,0.00,,,-99.99,,2013-05-23 11:02:00,
2013-05-23 06:11:00,48.0,46.0,-100.00,North,0,0.0,0.0,94,0.00,,,-99.99,,2013-05-23 11:11:00,
2013-05-23 06:22:00,48.0,46.0,-100.00,North,0,0.0,0.0,94,0.00,,,-99.99,,2013-05-23 11:22:00,
2013-05-23 06:32:00,48.0,46.0,-100.00,North,0,0.0,0.0,94,0.00,,,-99.99,,2013-05-23 11:32:00,
2013-05-23 07:01:00,46.0,45.0,-100.00,NE,40,0.0,0.0,94,0.00,,,-99.99,,2013-05-23 12:01:00,
2013-05-23 07:12:00,46.0,45.0,-100.00,NE,40,0.0,0.0,94,0.00,,,-99.99,,2013-05-23 12:12:00,
2013-05-23 07:21:00,46.0,45.0,-100.00,NE,40,0.0,0.0,94,0.00,,,-99.99,,2013-05-23 12:21:00,
2013-05-23 07:32:00,46.0,45.0,-100.00,NE,40,0.0,0.0,94,0.00,,,-99.99,,2013-05-23 12:32:00,
2013-05-23 08:01:00,46.0,44.0,-100.00,North,0,0.0,0.0,93,0.00,,,-99.99,,2013-05-23 13:01:00,
2013-05-23 08:11:00,46.0,44.0,-100.00,North,0,0.0,0.0,93,0.00,,,-99.99,,2013-05-23 13:11:00,
2013-05-23 08:22:00,46.0,44.0,-100.00,North,0,0.0,0.0,93,0.00,,,-99.99,,2013-05-23 13:22:00,
2013-05-23 08:31:00,46.0,44.0,-100.00,North,0,0.0,0.0,93,0.00,,,-99.99,,2013-05-23 13:31:00,
2013-05-23 09:02:00,47.0,44.0,-100.00,North,0,0.0,0.0,88,0.00,,,-99.99,,2013-05-23 14:02:00,
2013-05-23 09:11:00,47.0,44.0,-100.00,North,0,0.0,0.0,88,0.00,,,-99.99,,2013-05-23 14:11:00,
2013-05-23 09:21:00,47.0,44.0,-100.00,North,0,0.0,0.0,88,0.00,,,-99.99,,2013-05-23 14:21:00,
2013-05-23 09:32:00,47.0,44.0,-100.00,North,0,0.0,0.0,88,0.00,,,-99.99,,2013-05-23 14:32:00,
2013-05-23 10:01:00,48.0,42.0,-100.00,NE,40,0.0,0.0,78,0.00,,,-99.99,,2013-05-23 15:01:00,
2013-05-23 10:11:00,48.0,42.0,-100.00,NE,40,0.0,0.0,78,0.00,,,-99.99,,2013-05-23 15:11:00,
2013-05-23 10:21:00,48.0,42.0,-100.00,NE,40,0.0,0.0,78,0.00,,,-99.99,,2013-05-23 15:21:00,
2013-05-23 10:32:00,48.0,42.0,-100.00,NE,40,0.0,0.0,78,0.00,,,-99.99,,2013-05-23 15:32:00,
2013-05-23 11:03:00,53.0,41.0,-100.00,NNW,330,0.0,0.0,66,0.00,,,-99.99,,2013-05-23 16:03:00,
2013-05-23 11:12:00,53.0,41.0,-100.00,NNW,330,0.0,0.0,66,0.00,,,-99.99,,2013-05-23 16:12:00,
2013-05-23 11:23:00,53.0,41.0,-100.00,NNW,330,0.0,0.0,66,0.00,,,-99.99,,2013-05-23 16:23:00,
2013-05-23 11:33:00,53.0,41.0,-100.00,NNW,330,0.0,0.0,66,0.00,,,-99.99,,2013-05-23 16:33:00,
2013-05-23 12:03:00,55.0,41.0,-100.00,NNW,330,0.0,0.0,59,0.00,,,-99.99,,2013-05-23 17:03:00,
2013-05-23 12:11:00,55.0,41.0,-100.00,NNW,330,0.0,0.0,59,0.00,,,-99.99,,2013-05-23 17:11:00,
2013-05-23 12:23:00,55.0,41.0,-100.00,NNW,330,0.0,0.0,59,0.00,,,-99.99,,2013-05-23 17:23:00,
2013-05-23 12:33:00,55.0,41.0,-100.00,NNW,330,0.0,0.0,59,0.00,,,-99.99,,2013-05-23 17:33:00,
2013-05-23 13:01:00,56.0,37.0,-100.00,NE,35,0.0,0.0,50,0.00,,,-99.99,,2013-05-23 18:01:00,
2013-05-23 13:11:00,56.0,37.0,-100.00,NE,35,0.0,0.0,50,0.00,,,-99.99,,2013-05-23 18:11:00,
2013-05-23 13:22:00,56.0,37.0,-100.00,NE,35,0.0,0.0,50,0.00,,,-99.99,,2013-05-23 18:22:00,
2013-05-23 13:32:00,56.0,37.0,-100.00,NE,35,0.0,0.0,50,0.00,,,-99.99,,2013-05-23 18:32:00,
2013-05-23 15:02:00,60.0,29.0,-100.00,NE,45,0.0,0.0,31,0.00,,,-99.99,,2013-05-23 20:02:00,
2013-05-23 15:11:00,60.0,29.0,-100.00,NE,45,0.0,0.0,31,0.00,,,-99.99,,2013-05-23 20:11:00,
2013-05-23 15:21:00,60.0,29.0,-100.00,NE,45,0.0,0.0,31,0.00,,,-99.99,,2013-05-23 20:21:00,
2013-05-23 15:32:00,60.0,29.0,-100.00,NE,45,0.0,0.0,31,0.00,,,-99.99,,2013-05-23 20:32:00,
2013-05-23 16:01:00,60.0,29.0,-100.00,North,0,0.0,0.0,30,0.00,,,-99.99,,2013-05-23 21:01:00,
2013-05-23 16:11:00,60.0,29.0,-100.00,North,0,0.0,0.0,30,0.00,,,-99.99,,2013-05-23 21:11:00,
2013-05-23 16:21:00,60.0,29.0,-100.00,North,0,0.0,0.0,30,0.00,,,-99.99,,2013-05-23 21:21:00,
2013-05-23 16:32:00,60.0,29.0,-100.00,North,0,0.0,0.0,30,0.00,,,-99.99,,2013-05-23 21:32:00,
2013-05-23 17:03:00,60.0,27.0,-100.00,ENE,60,0.0,0.0,28,0.00,,,-99.99,,2013-05-23 22:03:00,
2013-05-23 17:12:00,60.0,27.0,-100.00,ENE,60,0.0,0.0,28,0.00,,,-99.99,,2013-05-23 22:12:00,
2013-05-23 17:22:00,60.0,27.0,-100.00,ENE,60,0.0,0.0,28,0.00,,,-99.99,,2013-05-23 22:22:00,
2013-05-23 17:33:00,60.0,27.0,-100.00,ENE,60,0.0,0.0,28,0.00,,,-99.99,,2013-05-23 22:33:00,
2013-05-23 19:01:00,60.0,29.0,-100.00,North,0,0.0,0.0,31,0.00,,,-99.99,,2013-05-24 00:01:00,
2013-05-23 19:12:00,60.0,29.0,-100.00,North,0,0.0,0.0,31,0.00,,,-99.99,,2013-05-24 00:12:00,
2013-05-23 19:21:00,60.0,29.0,-100.00,North,0,0.0,0.0,31,0.00,,,-99.99,,2013-05-24 00:21:00,
2013-05-23 19:32:00,60.0,29.0,-100.00,North,0,0.0,0.0,31,0.00,,,-99.99,,2013-05-24 00:32:00,
2013-05-23 20:01:00,58.0,27.0,-100.00,North,0,0.0,0.0,30,0.00,,,-99.99,,2013-05-24 01:01:00,
2013-05-23 20:12:00,58.0,27.0,-100.00,North,0,0.0,0.0,30,0.00,,,-99.99,,2013-05-24 01:12:00,
2013-05-23 20:22:00,58.0,27.0,-100.00,North,0,0.0,0.0,30,0.00,,,-99.99,,2013-05-24 01:22:00,
2013-05-23 20:32:00,58.0,27.0,-100.00,North,0,0.0,0.0,30,0.00,,,-99.99,,2013-05-24 01:32:00,
2013-05-23 21:02:00,55.0,27.0,-100.00,NNE,20,0.0,0.0,35,0.00,,,-99.99,,2013-05-24 02:02:00,
2013-05-23 21:11:00,55.0,27.0,-100.00,NNE,20,0.0,0.0,35,0.00,,,-99.99,,2013-05-24 02:11:00,
2013-05-23 21:21:00,55.0,27.0,-100.00,NNE,20,0.0,0.0,35,0.00,,,-99.99,,2013-05-24 02:21:00,
2013-05-23 21:32:00,55.0,27.0,-100.00,NNE,20,0.0,0.0,35,0.00,,,-99.99,,2013-05-24 02:32:00,
2013-05-23 22:02:00,51.0,28.0,-100.00,WSW,255,0.0,0.0,41,0.00,,,-99.99,,2013-05-24 03:02:00,
2013-05-23 22:11:00,51.0,28.0,-100.00,WSW,255,0.0,0.0,41,0.00,,,-99.99,,2013-05-24 03:11:00,
2013-05-23 22:21:00,51.0,28.0,-100.00,WSW,255,0.0,0.0,41,0.00,,,-99.99,,2013-05-24 03:21:00,
2013-05-23 22:33:00,51.0,28.0,-100.00,WSW,255,0.0,0.0,41,0.00,,,-99.99,,2013-05-24 03:33:00,
2013-05-23 23:03:00,48.0,31.0,-100.00,East,80,0.0,0.0,53,0.00,,,-99.99,,2013-05-24 04:03:00,
2013-05-23 23:12:00,48.0,31.0,-100.00,East,80,0.0,0.0,53,0.00,,,-99.99,,2013-05-24 04:12:00,
2013-05-23 23:22:00,48.0,31.0,-100.00,East,80,0.0,0.0,53,0.00,,,-99.99,,2013-05-24 04:22:00,
2013-05-23 23:33:00,48.0,31.0,-100.00,East,80,0.0,0.0,53,0.00,,,-99.99,,2013-05-24 04:33:00,